createdAt,value
2018-04-26T00:02:11.534Z,22.10
2018-04-26T00:04:39.880Z,22.37
2018-04-26T00:07:08.218Z,20.60
2018-04-26T00:09:36.573Z,18.77
2018-04-26T00:12:04.945Z,20.63
2018-04-26T00:14:33.267Z,20.27
2018-04-26T00:17:01.625Z,18.37
2018-04-26T00:19:29.953Z,19.87
2018-04-26T00:21:58.287Z,23.13
2018-04-26T00:24:26.612Z,18.67
2018-04-26T00:26:54.950Z,20.80
2018-04-26T00:29:23.283Z,20.03
2018-04-26T00:31:51.650Z,20.60
2018-04-26T00:34:19.971Z,21.23
2018-04-26T00:36:48.333Z,19.87
2018-04-26T00:39:16.648Z,21.93
2018-04-26T00:41:44.993Z,21.30
2018-04-26T00:44:13.328Z,19.63
2018-04-26T00:46:41.672Z,22.23
2018-04-26T00:49:10.002Z,24.83
2018-04-26T00:51:50.278Z,21.10
2018-04-26T00:54:18.624Z,21.17
2018-04-26T00:56:46.966Z,21.67
2018-04-26T01:01:49.877Z,22.60
2018-04-26T01:04:18.230Z,20.73
2018-04-26T01:06:46.561Z,22.10
2018-04-26T01:09:14.908Z,23.27
2018-04-26T01:11:43.240Z,23.53
2018-04-26T01:14:11.572Z,22.60
2018-04-26T01:16:39.898Z,23.10
2018-04-26T01:19:08.235Z,23.63
2018-04-26T01:21:36.594Z,27.43
2018-04-26T01:24:04.928Z,22.53
2018-04-26T01:26:33.281Z,25.00
2018-04-26T01:29:01.609Z,25.17
2018-04-26T01:31:29.974Z,24.90
2018-04-26T01:33:58.294Z,23.53
2018-04-26T01:36:38.504Z,24.77
2018-04-26T01:39:06.837Z,25.30
2018-04-26T01:41:35.177Z,25.43
2018-04-26T01:44:03.515Z,24.37
2018-04-26T01:46:31.851Z,24.20
2018-04-26T01:49:00.189Z,25.70
2018-04-26T01:51:28.576Z,25.33
2018-04-26T01:53:56.889Z,26.80
2018-04-26T01:56:25.238Z,26.20
2018-04-26T01:58:53.543Z,28.53
2018-04-26T02:01:21.897Z,25.70
2018-04-26T02:03:50.219Z,25.60
2018-04-26T02:06:18.586Z,25.73
2018-04-26T02:08:46.907Z,27.23
2018-04-26T02:11:15.252Z,27.43
2018-04-26T02:13:43.585Z,27.33
2018-04-26T02:16:11.907Z,25.00
2018-04-26T02:18:40.261Z,27.50
2018-04-26T02:21:08.596Z,31.60
2018-04-26T02:23:36.932Z,28.40
2018-04-26T02:26:05.254Z,27.93
2018-04-26T02:28:33.597Z,28.03
2018-04-26T02:31:01.923Z,25.43
2018-04-26T02:33:30.392Z,28.77
2018-04-26T02:35:58.721Z,26.13
2018-04-26T02:38:27.073Z,26.17
2018-04-26T02:40:55.384Z,25.53
2018-04-26T02:43:23.719Z,28.50
2018-04-26T02:45:52.193Z,28.50
2018-04-26T02:48:20.524Z,27.43
2018-04-26T02:50:48.840Z,27.93
2018-04-26T02:53:17.185Z,28.80
2018-04-26T02:55:45.515Z,27.47
2018-04-26T02:58:13.858Z,29.23
2018-04-26T03:00:42.889Z,27.23
2018-04-26T03:03:11.272Z,27.27
2018-04-26T03:05:39.601Z,29.07
2018-04-26T03:08:07.907Z,29.83
2018-04-26T03:10:36.265Z,26.53
2018-04-26T03:13:04.667Z,27.40
2018-04-26T03:15:32.928Z,27.77
2018-04-26T03:18:01.250Z,28.43
2018-04-26T03:20:29.606Z,28.03
2018-04-26T03:22:57.940Z,26.33
2018-04-26T03:25:26.352Z,26.30
2018-04-26T03:27:54.717Z,31.80
2018-04-26T03:30:23.074Z,27.37
2018-04-26T03:32:51.400Z,26.53
2018-04-26T03:35:19.796Z,26.90
2018-04-26T03:37:48.200Z,25.70
2018-04-26T03:40:16.561Z,26.60
2018-04-26T03:42:46.125Z,27.40
2018-04-26T03:45:14.478Z,25.10
2018-04-26T03:47:42.841Z,28.97
2018-04-26T03:50:11.155Z,28.43
2018-04-26T03:52:39.494Z,28.13
2018-04-26T03:55:07.848Z,29.30
2018-04-26T03:57:36.183Z,26.63
2018-04-26T04:00:16.397Z,32.47
2018-04-26T04:02:56.492Z,30.47
2018-04-26T04:05:36.534Z,33.93
2018-04-26T04:08:04.867Z,31.27
2018-04-26T04:10:33.218Z,30.90
2018-04-26T04:13:01.561Z,30.67
2018-04-26T04:15:29.889Z,29.20
2018-04-26T04:17:58.219Z,29.10
2018-04-26T04:20:26.582Z,29.57
2018-04-26T04:22:54.918Z,28.93
2018-04-26T04:25:23.253Z,33.33
2018-04-26T04:27:51.641Z,28.27
2018-04-26T04:30:19.931Z,32.43
2018-04-26T04:32:48.286Z,28.33
2018-04-26T04:35:16.666Z,32.23
2018-04-26T04:37:44.957Z,27.33
2018-04-26T04:40:13.334Z,28.57
2018-04-26T04:42:41.739Z,29.27
2018-04-26T04:45:10.042Z,27.27
2018-04-26T04:47:42.561Z,28.40
2018-04-26T04:50:10.953Z,27.60
2018-04-26T04:52:39.292Z,27.90
2018-04-26T04:55:07.634Z,27.97
2018-04-26T04:57:35.976Z,25.67
2018-04-26T05:00:04.321Z,28.17
2018-04-26T05:02:32.668Z,27.07
2018-04-26T05:05:01.000Z,25.47
2018-04-26T05:07:29.325Z,22.97
2018-04-26T05:09:57.679Z,23.83
2018-04-26T05:12:25.988Z,23.23
2018-04-26T05:14:54.323Z,22.80
2018-04-26T05:17:22.668Z,25.00
2018-04-26T05:19:51.007Z,26.10
2018-04-26T05:22:19.341Z,23.73
2018-04-26T05:24:47.689Z,24.13
2018-04-26T05:27:16.094Z,25.63
2018-04-26T05:29:44.436Z,25.47
2018-04-26T05:32:12.758Z,27.97
2018-04-26T05:34:41.115Z,25.17
2018-04-26T05:37:09.444Z,25.73
2018-04-26T05:39:37.781Z,24.53
2018-04-26T05:42:06.155Z,26.77
2018-04-26T05:44:34.488Z,26.30
2018-04-26T05:47:02.838Z,23.60
2018-04-26T05:49:31.183Z,23.83
2018-04-26T05:51:59.524Z,25.40
2018-04-26T05:54:27.851Z,25.93
2018-04-26T05:56:56.192Z,29.23
2018-04-26T05:59:24.535Z,33.10
2018-04-26T06:01:52.877Z,36.87
2018-04-26T06:04:21.204Z,31.33
2018-04-26T06:06:49.559Z,32.07
2018-04-26T06:09:17.936Z,25.07
2018-04-26T06:11:46.284Z,26.67
2018-04-26T06:14:14.727Z,30.57
2018-04-26T06:16:43.093Z,20.60
2018-04-26T06:19:11.429Z,21.67
2018-04-26T06:21:39.807Z,18.50
2018-04-26T06:24:08.168Z,16.57
2018-04-26T06:26:36.545Z,13.97
2018-04-26T06:29:04.848Z,12.73
2018-04-26T06:31:33.229Z,13.73
2018-04-26T06:34:01.561Z,17.07
2018-04-26T06:36:29.897Z,16.30
2018-04-26T06:38:58.252Z,21.97
2018-04-26T06:41:27.173Z,19.10
2018-04-26T06:43:55.517Z,17.53
2018-04-26T06:46:23.843Z,14.77
2018-04-26T06:48:52.197Z,13.43
2018-04-26T06:51:20.543Z,12.63
2018-04-26T06:53:48.874Z,10.47
2018-04-26T06:56:17.193Z,9.03
2018-04-26T06:58:45.531Z,8.53
2018-04-26T07:01:13.845Z,9.07
2018-04-26T07:03:42.168Z,10.77
2018-04-26T07:06:10.484Z,9.47
2018-04-26T07:08:38.827Z,10.60
2018-04-26T07:11:07.147Z,10.50
2018-04-26T07:13:35.476Z,10.60
2018-04-26T07:16:03.830Z,10.63
2018-04-26T07:18:32.191Z,11.47
2018-04-26T07:21:00.522Z,10.37
2018-04-26T07:23:28.851Z,9.23
2018-04-26T07:25:57.189Z,11.60
2018-04-26T07:28:25.523Z,10.90
2018-04-26T07:30:53.873Z,10.27
2018-04-26T07:33:22.213Z,10.77
2018-04-26T07:35:50.801Z,10.90
2018-04-26T07:38:19.127Z,11.87
2018-04-26T07:40:47.455Z,10.47
2018-04-26T07:43:15.780Z,10.20
2018-04-26T07:45:44.189Z,9.57
2018-04-26T07:48:12.517Z,11.07
2018-04-26T07:50:40.887Z,12.97
2018-04-26T07:53:09.266Z,12.03
2018-04-26T07:55:37.585Z,11.67
2018-04-26T07:58:05.892Z,7.87
2018-04-26T08:00:34.257Z,9.17
2018-04-26T08:03:02.556Z,9.37
2018-04-26T08:05:30.878Z,8.67
2018-04-26T08:07:59.199Z,6.50
2018-04-26T08:10:27.542Z,5.33
2018-04-26T08:12:55.891Z,7.43
2018-04-26T08:15:24.192Z,5.30
2018-04-26T08:17:52.530Z,6.50
2018-04-26T08:20:20.854Z,5.23
2018-04-26T08:22:49.237Z,4.43
2018-04-26T08:25:17.537Z,3.37
2018-04-26T08:27:45.871Z,6.47
2018-04-26T08:30:14.897Z,3.93
2018-04-26T08:32:43.240Z,8.40
2018-04-26T08:35:12.386Z,5.67
2018-04-26T08:37:40.709Z,13.37
2018-04-26T08:40:09.069Z,20.53
2018-04-26T08:42:37.405Z,52.90
2018-04-26T08:45:05.717Z,8.93
2018-04-26T08:47:34.041Z,7.63
2018-04-26T08:50:02.357Z,5.30
2018-04-26T08:52:30.680Z,5.77
2018-04-26T08:54:59.001Z,3.07
2018-04-26T08:57:27.329Z,8.53
2018-04-26T08:59:56.007Z,5.23
2018-04-26T09:02:24.321Z,4.53
2018-04-26T09:04:52.651Z,5.27
2018-04-26T09:07:20.967Z,8.63
2018-04-26T09:09:49.292Z,5.17
2018-04-26T09:12:17.607Z,25.17
2018-04-26T09:14:45.946Z,8.37
2018-04-26T09:17:17.834Z,7.50
2018-04-26T09:19:46.239Z,5.10
2018-04-26T09:22:14.559Z,4.83
2018-04-26T09:24:42.896Z,5.03
2018-04-26T09:27:11.237Z,6.83
2018-04-26T09:29:39.567Z,7.43
2018-04-26T09:32:07.906Z,3.77
2018-04-26T09:34:36.245Z,7.80
2018-04-26T09:37:04.590Z,3.87
2018-04-26T09:39:32.906Z,6.53
2018-04-26T09:42:01.221Z,6.03
2018-04-26T09:44:29.565Z,4.33
2018-04-26T09:46:57.881Z,5.90
2018-04-26T09:49:26.202Z,3.43
2018-04-26T09:51:54.518Z,5.50
2018-04-26T09:54:22.825Z,4.20
2018-04-26T09:56:51.158Z,3.87
2018-04-26T09:59:19.489Z,4.70
2018-04-26T10:01:47.929Z,6.63
2018-04-26T10:04:24.889Z,3.10
2018-04-26T10:07:00.931Z,5.83
2018-04-26T10:09:29.252Z,3.37
2018-04-26T10:11:58.816Z,9.10
2018-04-26T10:14:27.138Z,5.63
2018-04-26T10:16:55.464Z,5.70
2018-04-26T10:19:23.767Z,4.30
2018-04-26T10:21:52.107Z,2.80
2018-04-26T10:24:20.423Z,2.93
2018-04-26T10:26:48.760Z,3.20
2018-04-26T10:29:17.081Z,5.63
2018-04-26T10:31:45.402Z,4.90
2018-04-26T10:34:13.723Z,4.93
2018-04-26T10:36:42.070Z,3.53
2018-04-26T10:39:10.382Z,3.37
2018-04-26T10:41:38.696Z,2.40
2018-04-26T10:44:07.027Z,1.63
2018-04-26T10:46:35.345Z,2.40
2018-04-26T10:49:03.705Z,5.73
2018-04-26T10:51:32.017Z,4.60
2018-04-26T10:54:00.346Z,6.63
2018-04-26T10:56:28.671Z,3.57
2018-04-26T10:58:56.989Z,7.63
2018-04-26T11:01:25.291Z,3.23
2018-04-26T11:03:53.631Z,6.53
2018-04-26T11:06:21.958Z,4.50
2018-04-26T11:08:51.435Z,2.63
2018-04-26T11:11:19.793Z,5.70
2018-04-26T11:13:48.072Z,4.97
2018-04-26T11:16:16.424Z,4.50
2018-04-26T11:18:44.738Z,4.40
2018-04-26T11:21:13.075Z,3.10
2018-04-26T11:23:42.467Z,5.67
2018-04-26T11:26:10.822Z,2.83
2018-04-26T11:28:39.144Z,9.67
2018-04-26T11:31:07.570Z,2.43
2018-04-26T11:33:35.800Z,4.50
2018-04-26T11:36:04.206Z,7.00
2018-04-26T11:38:32.480Z,5.40
2018-04-26T11:41:00.818Z,2.90
2018-04-26T11:43:29.120Z,5.53
2018-04-26T11:45:57.446Z,7.73
2018-04-26T11:48:25.764Z,5.63
2018-04-26T11:50:54.093Z,4.03
2018-04-26T11:53:22.393Z,8.27
2018-04-26T11:55:50.720Z,5.13
2018-04-26T11:58:19.028Z,5.23
2018-04-26T12:00:47.366Z,9.33
2018-04-26T12:03:15.683Z,6.97
2018-04-26T12:05:44.081Z,3.70
2018-04-26T12:08:12.399Z,4.13
2018-04-26T12:10:40.764Z,2.43
2018-04-26T12:13:09.164Z,4.90
2018-04-26T12:15:37.425Z,2.53
2018-04-26T12:18:05.749Z,2.40
2018-04-26T12:20:34.083Z,6.80
2018-04-26T12:23:02.423Z,1.50
2018-04-26T12:25:30.765Z,1.73
2018-04-26T12:27:59.083Z,1.77
2018-04-26T12:30:27.414Z,2.23
2018-04-26T12:32:55.731Z,1.27
2018-04-26T12:35:24.044Z,1.60
2018-04-26T12:37:52.363Z,6.53
2018-04-26T12:40:20.668Z,1.83
2018-04-26T12:42:49.029Z,8.47
2018-04-26T12:45:17.340Z,3.03
2018-04-26T12:47:45.672Z,2.73
2018-04-26T12:50:14.039Z,4.57
2018-04-26T12:52:43.351Z,6.00
2018-04-26T12:55:11.664Z,6.17
2018-04-26T12:57:39.990Z,5.90
2018-04-26T13:00:10.114Z,2.47
2018-04-26T13:02:38.403Z,7.17
2018-04-26T13:05:07.624Z,6.37
2018-04-26T13:07:35.995Z,6.20
2018-04-26T13:10:04.327Z,4.63
2018-04-26T13:12:32.653Z,6.20
2018-04-26T13:15:00.973Z,5.30
2018-04-26T13:17:29.342Z,8.10
2018-04-26T13:19:57.673Z,5.53
2018-04-26T13:22:25.988Z,8.63
2018-04-26T13:24:54.324Z,4.33
2018-04-26T13:27:22.677Z,3.73
2018-04-26T13:29:51.069Z,5.03
2018-04-26T13:32:19.313Z,6.77
2018-04-26T13:34:47.635Z,4.83
2018-04-26T13:37:15.981Z,5.13
2018-04-26T13:39:44.323Z,4.07
2018-04-26T13:42:12.627Z,4.63
2018-04-26T13:44:40.931Z,4.60
2018-04-26T13:47:09.276Z,4.40
2018-04-26T13:49:37.584Z,8.77
2018-04-26T13:52:07.144Z,7.10
2018-04-26T13:54:35.426Z,14.50
2018-04-26T13:57:03.773Z,4.90
2018-04-26T13:59:32.090Z,6.77
2018-04-26T14:02:00.445Z,7.47
2018-04-26T14:04:28.751Z,5.47
2018-04-26T14:06:57.080Z,4.10
2018-04-26T14:09:25.396Z,5.00
2018-04-26T14:11:53.755Z,4.13
2018-04-26T14:14:22.087Z,3.20
2018-04-26T14:16:50.910Z,2.30
2018-04-26T14:19:19.232Z,3.93
2018-04-26T14:21:47.553Z,2.40
2018-04-26T14:24:15.872Z,3.13
2018-04-26T14:26:44.198Z,2.77
2018-04-26T14:29:12.523Z,2.53
2018-04-26T14:31:40.855Z,4.33
2018-04-26T14:34:09.292Z,4.63
2018-04-26T14:36:37.637Z,3.63
2018-04-26T14:39:05.955Z,1.70
2018-04-26T14:41:34.289Z,3.93
2018-04-26T14:44:02.650Z,2.57
2018-04-26T14:46:31.082Z,2.10
2018-04-26T14:48:59.403Z,2.33
2018-04-26T14:51:27.860Z,4.47
2018-04-26T14:53:56.244Z,2.60
2018-04-26T14:56:24.656Z,2.97
2018-04-26T14:58:53.014Z,7.70
2018-04-26T15:01:21.343Z,2.30
2018-04-26T15:03:49.672Z,2.43
2018-04-26T15:06:18.559Z,4.37
2018-04-26T15:08:46.951Z,3.30
2018-04-26T15:11:15.273Z,2.93
2018-04-26T15:13:43.709Z,4.20
2018-04-26T15:16:12.059Z,2.93
2018-04-26T15:18:40.415Z,3.17
2018-04-26T15:21:08.743Z,2.73
2018-04-26T15:23:37.072Z,1.83
2018-04-26T15:26:05.415Z,2.70
2018-04-26T15:28:33.764Z,5.90
2018-04-26T15:31:02.123Z,3.23
2018-04-26T15:33:30.450Z,5.97
2018-04-26T15:35:58.804Z,2.37
2018-04-26T15:38:27.137Z,3.23
2018-04-26T15:40:55.635Z,4.17
2018-04-26T15:43:23.976Z,6.50
2018-04-26T15:45:52.586Z,4.20
2018-04-26T15:48:20.972Z,4.33
2018-04-26T15:50:52.175Z,2.43
2018-04-26T15:53:32.414Z,2.10
2018-04-26T15:56:12.827Z,3.77
2018-04-26T16:02:17.805Z,2.77
2018-04-26T16:04:57.899Z,2.47
2018-04-26T16:07:55.518Z,4.50
2018-04-26T16:10:41.843Z,2.83
2018-04-26T16:13:27.703Z,2.67
2018-04-26T16:16:14.121Z,7.40
2018-04-26T16:18:54.267Z,3.27
2018-04-26T16:21:35.407Z,3.03
2018-04-26T16:24:21.344Z,2.90
2018-04-26T16:27:07.091Z,3.37
2018-04-26T16:29:47.132Z,3.30
2018-04-26T16:32:46.493Z,2.10
2018-04-26T16:35:26.601Z,3.40
2018-04-26T16:38:14.008Z,2.57
2018-04-26T16:40:42.343Z,3.07
2018-04-26T16:43:10.784Z,2.50
2018-04-26T16:45:39.144Z,2.87
2018-04-26T16:48:07.465Z,8.40
2018-04-26T16:50:35.811Z,2.90
2018-04-26T16:53:04.224Z,3.83
2018-04-26T16:55:32.578Z,2.63
2018-04-26T16:58:01.757Z,2.73
2018-04-26T17:00:30.086Z,2.90
2018-04-26T17:02:58.474Z,3.60
2018-04-26T17:05:26.780Z,4.53
2018-04-26T17:07:55.127Z,6.00
2018-04-26T17:10:23.442Z,2.73
2018-04-26T17:12:51.749Z,3.77
2018-04-26T17:15:20.291Z,2.73
2018-04-26T17:17:48.551Z,5.17
2018-04-26T17:20:16.895Z,3.87
2018-04-26T17:22:45.263Z,3.63
2018-04-26T17:25:13.608Z,2.90
2018-04-26T17:27:41.931Z,3.10
2018-04-26T17:30:10.276Z,3.70
2018-04-26T17:32:38.590Z,3.87
2018-04-26T17:35:06.908Z,4.00
2018-04-26T17:37:37.581Z,3.70
2018-04-26T17:40:07.491Z,3.07
2018-04-26T17:42:35.729Z,4.17
2018-04-26T17:45:04.118Z,4.40
2018-04-26T17:47:32.491Z,4.83
2018-04-26T17:50:00.884Z,3.73
2018-04-26T17:52:29.246Z,5.13
2018-04-26T17:54:57.818Z,4.30
2018-04-26T17:57:26.194Z,4.53
2018-04-26T17:59:54.501Z,8.03
2018-04-26T18:02:22.885Z,5.47
2018-04-26T18:04:51.555Z,7.67
2018-04-26T18:07:19.977Z,4.50
2018-04-26T18:09:48.315Z,6.03
2018-04-26T18:12:16.685Z,4.87
2018-04-26T18:14:45.060Z,3.83
2018-04-26T18:17:13.387Z,4.37
2018-04-26T18:19:41.770Z,3.33
2018-04-26T18:22:10.077Z,3.40
2018-04-26T18:24:38.413Z,4.90
2018-04-26T18:27:06.747Z,5.93
2018-04-26T18:29:35.067Z,3.50
2018-04-26T18:32:03.501Z,6.10
2018-04-26T18:34:31.762Z,5.60
2018-04-26T18:37:00.103Z,4.37
2018-04-26T18:39:28.462Z,5.20
2018-04-26T18:41:56.787Z,5.50
2018-04-26T18:44:25.213Z,3.80
2018-04-26T18:46:53.539Z,3.93
2018-04-26T18:49:21.858Z,4.13
2018-04-26T18:51:50.214Z,4.17
2018-04-26T18:54:18.548Z,5.37
2018-04-26T18:56:46.972Z,4.03
2018-04-26T18:59:15.291Z,4.33
2018-04-26T19:01:43.649Z,4.90
2018-04-26T19:04:11.977Z,3.90
2018-04-26T19:06:40.338Z,4.50
2018-04-26T19:09:08.686Z,3.90
2018-04-26T19:11:37.040Z,3.70
2018-04-26T19:14:05.415Z,3.93
2018-04-26T19:16:33.791Z,5.73
2018-04-26T19:19:02.092Z,5.80
2018-04-26T19:21:30.443Z,4.20
2018-04-26T19:23:58.756Z,3.60
2018-04-26T19:26:27.075Z,4.77
2018-04-26T19:28:55.434Z,5.17
2018-04-26T19:31:23.747Z,5.40
2018-04-26T19:33:52.085Z,5.17
2018-04-26T19:36:20.440Z,9.90
2018-04-26T19:38:48.888Z,6.20
2018-04-26T19:41:17.216Z,6.17
2018-04-26T19:43:45.566Z,7.93
2018-04-26T19:46:13.891Z,10.77
2018-04-26T19:48:42.212Z,5.10
2018-04-26T19:51:10.562Z,8.30
2018-04-26T19:53:38.876Z,4.57
2018-04-26T19:56:07.200Z,5.47
2018-04-26T19:58:35.547Z,5.60
2018-04-26T20:01:03.914Z,5.37
2018-04-26T20:03:32.261Z,8.13
2018-04-26T20:06:00.557Z,6.10
2018-04-26T20:08:28.872Z,4.60
2018-04-26T20:10:57.193Z,5.13
2018-04-26T20:13:25.513Z,4.80
2018-04-26T20:15:53.855Z,6.53
2018-04-26T20:18:22.305Z,5.00
2018-04-26T20:20:51.918Z,7.07
2018-04-26T20:23:20.202Z,7.90
2018-04-26T20:25:48.504Z,7.23
2018-04-26T20:28:16.873Z,7.53
2018-04-26T20:30:45.190Z,6.60
2018-04-26T20:33:13.546Z,5.30
2018-04-26T20:35:41.860Z,6.07
2018-04-26T20:38:10.449Z,8.13
2018-04-26T20:40:38.744Z,10.30
2018-04-26T20:43:07.097Z,6.77
2018-04-26T20:45:35.431Z,9.13
2018-04-26T20:48:03.752Z,8.07
2018-04-26T20:50:32.369Z,6.63
2018-04-26T20:53:00.649Z,6.77
2018-04-26T20:55:29.058Z,6.60
2018-04-26T20:57:57.366Z,6.50
2018-04-26T21:00:25.673Z,9.07
2018-04-26T21:03:13.241Z,6.33
2018-04-26T21:05:49.229Z,8.33
2018-04-26T21:08:20.566Z,7.37
2018-04-26T21:10:48.896Z,6.07
2018-04-26T21:13:17.284Z,7.20
2018-04-26T21:15:45.619Z,8.53
2018-04-26T21:18:13.960Z,7.47
2018-04-26T21:20:42.299Z,7.23
2018-04-26T21:23:10.646Z,7.43
2018-04-26T21:25:38.976Z,8.57
2018-04-26T21:28:07.292Z,7.53
2018-04-26T21:30:35.619Z,7.27
2018-04-26T21:33:03.976Z,6.47
2018-04-26T21:35:32.312Z,7.13
2018-04-26T21:38:00.646Z,7.60
2018-04-26T21:40:28.964Z,5.27
2018-04-26T21:42:57.268Z,10.63
2018-04-26T21:45:25.630Z,6.30
2018-04-26T21:47:53.927Z,7.17
2018-04-26T21:50:27.785Z,6.70
2018-04-26T21:53:01.669Z,8.60
2018-04-26T21:55:35.508Z,7.43
2018-04-26T21:58:09.616Z,6.87
2018-04-26T22:00:44.467Z,7.27
2018-04-26T22:03:12.812Z,8.10
2018-04-26T22:05:41.960Z,10.70
2018-04-26T22:08:10.269Z,8.10
2018-04-26T22:10:38.627Z,6.10
2018-04-26T22:13:06.952Z,9.17
2018-04-26T22:15:35.282Z,8.97
2018-04-26T22:18:03.597Z,7.07
2018-04-26T22:20:31.922Z,7.57
2018-04-26T22:23:00.287Z,7.27
2018-04-26T22:25:28.594Z,7.33
2018-04-26T22:27:56.939Z,8.67
2018-04-26T22:30:25.254Z,7.90
2018-04-26T22:32:53.617Z,7.97
2018-04-26T22:35:21.936Z,7.30
2018-04-26T22:37:50.303Z,13.63
2018-04-26T22:40:18.741Z,7.57
2018-04-26T22:42:47.066Z,8.50
2018-04-26T22:45:16.858Z,8.37
2018-04-26T22:47:45.203Z,9.40
2018-04-26T22:50:13.624Z,8.90
2018-04-26T22:52:42.032Z,8.17
2018-04-26T22:55:10.368Z,8.83
2018-04-26T22:57:38.758Z,9.10
2018-04-26T23:00:07.078Z,8.57
2018-04-26T23:02:35.401Z,11.13
2018-04-26T23:05:03.728Z,7.33
2018-04-26T23:07:32.045Z,8.13
2018-04-26T23:10:14.307Z,8.10
2018-04-26T23:12:44.052Z,12.80
2018-04-26T23:15:12.350Z,10.17
2018-04-26T23:17:40.692Z,10.07
2018-04-26T23:20:09.030Z,7.90
2018-04-26T23:22:37.344Z,8.00
2018-04-26T23:25:05.659Z,9.53
2018-04-26T23:27:33.989Z,8.70
2018-04-26T23:30:02.368Z,8.77
2018-04-26T23:32:30.709Z,8.10
2018-04-26T23:34:59.082Z,12.40
2018-04-26T23:37:27.400Z,7.83
2018-04-26T23:39:57.443Z,9.13
2018-04-26T23:42:25.783Z,11.00
2018-04-26T23:44:54.113Z,11.83
2018-04-26T23:47:22.460Z,9.17
2018-04-26T23:49:50.781Z,13.67
2018-04-26T23:52:19.107Z,10.83
2018-04-26T23:54:47.472Z,8.40
2018-04-26T23:57:15.818Z,8.67
2018-04-26T23:59:44.146Z,9.93
